メインページ
METAR-TAF:

METAR-TAF

空港 :

ヤップ州, Yap Island, ミクロネシア

ヤップ国際空港

緯度: 09-29N, 経度: 138-05E, 海抜: 28m

現時点の気象観測

当レポートは15分前の20:50(UTC)に作成
変向風 6kt
気温 28°C
湿度 84%
気圧 1013 hPa
視程: 19.3km
高度1600ftの雲は散在している
高度13000ftの千切れ雲あり
高度30000ftの曇り

METAR: PTYA 292050Z VRB06KT 12SM SCT016 BKN130 OVC300 28/25 A2992 RMK SLP134 8/172 T02750250 52014

時間: 07:05 (21:05 UTC)

予報

当レポートは3時間31分前の17:34(UTC)に作成
予報は29日の 18時(UTC)から 30日の 18時(UTC)まで有効
東/北東の風 7kt
視程: 10km
高度1600ftの雲は散在している
高度13000ftの千切れ雲あり
近辺でにわか雨

TAF: PTYA 291734Z 2918/3018 07007KT P6SM VCSH SCT016 BKN130

4,000以上の空港の気象観測と天気予報(METAR報とTAF報)

利用可能な観測所は地図上に黄色い丸と赤い丸で示す。

丸の上にカーソルを重ねると観測所名を参照できる。

次にクリックすると気象観測と天気予報を参照できる。

マップの切り替え:黒色「×」印の緑ボタンをクリックして拡大、「-」印の緑ボタンをクリックして縮小、緑色の三角印をクリックして隣りの地図に切り替え


METAR-TAF: